createdAt,value
2022-08-17T00:01:52.741Z,1.80
2022-08-17T00:05:00.886Z,1.90
2022-08-17T00:08:06.988Z,2.10
2022-08-17T00:14:22.291Z,2.13
2022-08-17T03:09:45.611Z,2.38
2022-08-17T03:12:51.007Z,2.40
2022-08-17T03:15:55.714Z,2.08
2022-08-17T03:22:35.442Z,2.10
2022-08-17T03:25:38.139Z,2.00
2022-08-17T03:28:43.654Z,2.40
2022-08-17T03:31:48.184Z,2.38
2022-08-17T03:38:00.663Z,2.40
2022-08-17T03:41:07.410Z,2.20
2022-08-17T03:44:12.236Z,3.95
2022-08-17T03:47:35.742Z,2.30
2022-08-17T03:50:59.938Z,2.50
2022-08-17T03:54:22.874Z,2.30
2022-08-17T03:57:28.480Z,3.30
2022-08-17T04:00:33.186Z,2.30
2022-08-17T04:03:44.034Z,2.10
2022-08-17T04:06:49.029Z,3.22
2022-08-17T04:09:53.581Z,2.17
2022-08-17T04:13:02.148Z,2.50
2022-08-17T04:16:06.868Z,2.63
2022-08-17T04:19:12.005Z,2.42
2022-08-17T04:22:30.600Z,2.50
2022-08-17T04:25:40.444Z,2.30
2022-08-17T04:28:45.829Z,2.20
2022-08-17T04:31:50.482Z,2.63
2022-08-17T04:38:00.022Z,2.30
2022-08-17T04:41:24.264Z,2.15
2022-08-17T04:44:37.354Z,2.30
2022-08-17T04:47:42.405Z,3.25
2022-08-17T04:50:49.561Z,2.30
2022-08-17T04:54:00.969Z,2.10
2022-08-17T04:57:05.828Z,2.20
2022-08-17T05:00:11.837Z,2.17
2022-08-17T05:03:16.397Z,2.20
2022-08-17T05:06:21.362Z,2.35
2022-08-17T05:09:26.046Z,2.50
2022-08-17T05:15:36.891Z,2.20
2022-08-17T05:18:41.698Z,2.17
2022-08-17T05:24:53.911Z,2.10
2022-08-17T05:28:00.261Z,2.20
2022-08-17T05:31:07.002Z,2.40
2022-08-17T05:34:12.377Z,2.20
2022-08-17T05:37:17.217Z,2.28
2022-08-17T05:40:22.569Z,2.42
2022-08-17T05:43:33.221Z,2.08
2022-08-17T05:46:43.217Z,3.00
2022-08-17T05:49:49.007Z,2.38
2022-08-17T05:53:35.224Z,2.35
2022-08-17T05:56:54.718Z,2.28
2022-08-17T06:00:20.240Z,2.50
2022-08-17T06:03:44.036Z,2.15
2022-08-17T06:06:57.412Z,2.00
2022-08-17T06:10:43.146Z,2.60
2022-08-17T06:13:51.496Z,2.10
2022-08-17T06:17:05.719Z,2.10
2022-08-17T06:20:14.187Z,2.40
2022-08-17T06:23:46.759Z,2.00
2022-08-17T06:26:53.351Z,2.30
2022-08-17T06:30:57.385Z,2.30
2022-08-17T06:33:55.342Z,2.40
2022-08-17T06:37:28.570Z,2.45
2022-08-17T06:40:46.467Z,2.35
2022-08-17T06:44:02.880Z,2.40
2022-08-17T06:47:28.411Z,2.22
2022-08-17T06:51:00.887Z,2.30
2022-08-17T06:54:08.838Z,2.20
2022-08-17T06:57:20.038Z,2.30
2022-08-17T07:00:31.052Z,2.50
2022-08-17T07:03:38.637Z,2.30
2022-08-17T07:07:28.750Z,2.00
2022-08-17T07:10:48.326Z,2.20
2022-08-17T07:14:25.137Z,2.42
2022-08-17T07:17:46.803Z,3.10
2022-08-17T07:20:56.854Z,2.60
2022-08-17T07:24:28.123Z,2.53
2022-08-17T07:27:46.678Z,2.40
2022-08-17T07:30:56.328Z,2.90
2022-08-17T07:34:09.212Z,2.50
2022-08-17T07:37:14.841Z,2.33
2022-08-17T07:40:41.621Z,2.60
2022-08-17T07:43:53.270Z,2.53
2022-08-17T07:47:17.451Z,2.50
2022-08-17T07:50:40.467Z,2.85
2022-08-17T07:53:46.175Z,2.30
2022-08-17T07:56:59.907Z,2.60
2022-08-17T08:00:17.585Z,2.60
2022-08-17T08:03:32.795Z,2.33
2022-08-17T08:06:53.489Z,2.25
2022-08-17T08:10:27.978Z,3.60
2022-08-17T08:13:34.238Z,2.20
2022-08-17T08:16:38.491Z,2.40
2022-08-17T08:19:43.290Z,3.17
2022-08-17T08:23:06.194Z,2.80
2022-08-17T08:26:23.915Z,3.17
2022-08-17T08:29:46.355Z,2.80
2022-08-17T08:33:13.369Z,2.17
2022-08-17T08:36:56.907Z,2.38
2022-08-17T08:41:05.659Z,2.83
2022-08-17T08:45:00.801Z,2.80
2022-08-17T08:48:53.835Z,2.28
2022-08-17T08:51:59.032Z,2.60
2022-08-17T08:55:17.580Z,2.83
2022-08-17T08:58:45.875Z,3.53
2022-08-17T09:02:14.941Z,3.50
2022-08-17T09:05:43.856Z,2.78
2022-08-17T09:08:57.928Z,2.72
2022-08-17T09:12:06.893Z,2.67
2022-08-17T09:15:28.439Z,2.22
2022-08-17T09:18:59.820Z,2.45
2022-08-17T09:22:26.445Z,2.55
2022-08-17T09:25:36.388Z,2.58
2022-08-17T09:28:49.355Z,2.95
2022-08-17T09:32:04.516Z,2.45
2022-08-17T09:38:45.021Z,2.70
2022-08-17T09:42:05.773Z,2.50
2022-08-17T09:45:37.604Z,2.60
2022-08-17T09:48:56.266Z,2.50
2022-08-17T09:52:23.317Z,2.65
2022-08-17T09:56:04.500Z,3.17
2022-08-17T09:59:22.595Z,2.90
2022-08-17T10:02:42.634Z,3.22
2022-08-17T10:06:14.309Z,2.70
2022-08-17T10:09:44.659Z,3.40
2022-08-17T10:13:00.023Z,3.17
2022-08-17T10:16:31.323Z,2.88
2022-08-17T10:19:53.730Z,2.90
2022-08-17T10:23:34.289Z,4.53
2022-08-17T10:26:57.177Z,4.50
2022-08-17T10:30:05.725Z,4.95
2022-08-17T10:33:24.451Z,4.65
2022-08-17T10:36:59.832Z,4.97
2022-08-17T10:40:26.707Z,6.15
2022-08-17T10:44:36.605Z,8.15
2022-08-17T10:47:15.370Z,7.82
2022-08-17T10:51:01.461Z,7.40
2022-08-17T10:54:42.435Z,7.63
2022-08-17T10:57:51.045Z,9.50
2022-08-17T11:00:55.727Z,7.07
2022-08-17T11:04:05.263Z,11.10
2022-08-17T11:07:18.733Z,12.82
2022-08-17T11:10:52.320Z,11.70
2022-08-17T11:14:25.683Z,11.73
2022-08-17T11:17:51.124Z,10.02
2022-08-17T11:20:58.770Z,9.70
2022-08-17T11:24:25.045Z,8.82
2022-08-17T11:27:29.481Z,9.02
2022-08-17T11:30:52.004Z,8.77
2022-08-17T11:34:03.140Z,6.63
2022-08-17T11:37:32.491Z,5.78
2022-08-17T11:41:17.203Z,5.70
2022-08-17T11:44:43.263Z,7.68
2022-08-17T11:48:27.660Z,4.38
2022-08-17T11:51:57.362Z,4.30
2022-08-17T11:55:31.920Z,3.85
2022-08-17T11:58:32.737Z,3.45
2022-08-17T12:01:57.488Z,3.85
2022-08-17T12:05:23.841Z,4.13
2022-08-17T12:08:31.210Z,3.42
2022-08-17T12:11:57.795Z,2.90
2022-08-17T12:15:11.017Z,3.35
2022-08-17T12:18:42.707Z,3.22
2022-08-17T12:22:05.111Z,3.17
2022-08-17T12:25:21.490Z,3.72
2022-08-17T12:28:34.242Z,3.50
2022-08-17T12:31:45.913Z,6.80
2022-08-17T12:34:52.028Z,3.75
2022-08-17T12:37:58.784Z,4.13
2022-08-17T12:41:26.277Z,3.25
2022-08-17T12:44:40.509Z,2.90
2022-08-17T12:48:09.807Z,3.10
2022-08-17T12:51:17.923Z,2.90
2022-08-17T12:54:46.639Z,2.92
2022-08-17T12:57:55.119Z,2.47
2022-08-17T13:01:09.613Z,2.92
2022-08-17T13:04:17.165Z,2.95
2022-08-17T13:07:30.841Z,3.00
2022-08-17T13:10:38.686Z,2.97
2022-08-17T13:13:56.854Z,3.08
2022-08-17T13:17:08.572Z,3.30
2022-08-17T13:20:17.475Z,3.00
2022-08-17T13:23:22.549Z,3.03
2022-08-17T13:26:35.277Z,3.00
2022-08-17T13:30:02.281Z,3.17
2022-08-17T13:33:43.621Z,3.05
2022-08-17T13:36:50.750Z,3.47
2022-08-17T13:40:03.817Z,3.35
2022-08-17T13:43:09.785Z,2.72
2022-08-17T13:46:25.202Z,3.08
2022-08-17T13:49:41.933Z,3.55
2022-08-17T13:52:53.356Z,3.00
2022-08-17T13:56:02.462Z,3.35
2022-08-17T13:59:12.117Z,3.13
2022-08-17T14:02:19.539Z,3.03
2022-08-17T14:05:24.084Z,3.45
2022-08-17T14:08:31.686Z,3.00
2022-08-17T14:11:36.985Z,3.47
2022-08-17T14:14:43.865Z,3.03
2022-08-17T14:17:50.170Z,3.38
2022-08-17T14:20:57.564Z,2.80
2022-08-17T14:24:01.971Z,3.35
2022-08-17T14:27:12.786Z,3.30
2022-08-17T14:30:18.441Z,3.50
2022-08-17T14:33:25.628Z,3.28
2022-08-17T14:36:32.159Z,3.20
2022-08-17T14:39:36.800Z,3.33
2022-08-17T14:42:43.903Z,3.13
2022-08-17T14:45:50.838Z,3.05
2022-08-17T14:48:57.494Z,3.53
2022-08-17T14:52:02.603Z,2.75
2022-08-17T14:55:07.812Z,3.47
2022-08-17T15:01:17.305Z,3.22
2022-08-17T15:04:21.997Z,3.22
2022-08-17T15:07:30.880Z,3.90
2022-08-17T15:10:37.656Z,3.47
2022-08-17T15:13:52.411Z,3.72
2022-08-17T15:16:57.507Z,3.60
2022-08-17T15:20:02.296Z,3.38
2022-08-17T15:23:10.358Z,3.60
2022-08-17T15:26:14.905Z,3.00
2022-08-17T15:29:19.625Z,3.38
2022-08-17T15:32:38.966Z,3.42
2022-08-17T15:35:43.994Z,3.03
2022-08-17T15:38:48.597Z,3.55
2022-08-17T15:41:58.145Z,3.33
2022-08-17T15:45:14.229Z,4.68
2022-08-17T15:48:19.447Z,3.35
2022-08-17T15:51:26.191Z,3.28
2022-08-17T15:54:34.540Z,3.30
2022-08-17T15:57:41.166Z,3.15
2022-08-17T16:00:53.499Z,3.00
2022-08-17T16:04:26.636Z,3.45
2022-08-17T16:07:35.354Z,4.38
2022-08-17T16:10:40.182Z,3.30
2022-08-17T16:13:47.384Z,3.35
2022-08-17T16:17:00.054Z,3.42
2022-08-17T16:20:05.393Z,3.25
2022-08-17T16:23:16.087Z,3.22
2022-08-17T16:26:25.183Z,3.35
2022-08-17T16:32:33.911Z,3.13
2022-08-17T16:35:38.498Z,3.47
2022-08-17T16:38:43.184Z,3.30
2022-08-17T16:41:47.940Z,3.22
2022-08-17T16:44:54.921Z,3.28
2022-08-17T16:48:00.058Z,3.05
2022-08-17T16:51:04.693Z,2.95
2022-08-17T16:54:09.471Z,3.15
2022-08-17T16:57:16.441Z,3.10
2022-08-17T17:00:21.766Z,3.40
2022-08-17T17:03:29.018Z,2.90
2022-08-17T17:06:42.409Z,3.17
2022-08-17T17:09:49.829Z,3.17
2022-08-17T17:13:03.982Z,3.28
2022-08-17T17:16:30.935Z,3.43
2022-08-17T17:20:13.481Z,3.22
2022-08-17T17:23:30.817Z,3.20
2022-08-17T17:27:01.779Z,3.20
2022-08-17T17:30:44.465Z,3.10
2022-08-17T17:33:57.696Z,3.10
2022-08-17T17:37:07.137Z,3.15
2022-08-17T17:40:43.169Z,3.58
2022-08-17T17:43:50.212Z,3.50
2022-08-17T17:47:01.495Z,3.22
2022-08-17T17:50:09.518Z,3.58
2022-08-17T17:53:23.235Z,3.17
2022-08-17T18:00:04.666Z,2.90
2022-08-17T18:03:44.204Z,2.75
2022-08-17T18:06:51.439Z,3.10
2022-08-17T18:10:30.104Z,3.40
2022-08-17T18:13:57.707Z,3.30
2022-08-17T18:17:03.287Z,3.03
2022-08-17T18:20:08.385Z,2.70
2022-08-17T18:23:12.973Z,3.05
2022-08-17T18:26:37.380Z,2.83
2022-08-17T18:29:45.527Z,2.78
2022-08-17T18:32:50.407Z,2.78
2022-08-17T18:35:58.796Z,3.10
2022-08-17T18:39:33.074Z,2.92
2022-08-17T18:42:39.536Z,3.13
2022-08-17T18:45:49.846Z,3.05
2022-08-17T18:49:01.383Z,3.17
2022-08-17T18:52:15.796Z,3.20
2022-08-17T18:55:29.317Z,3.03
2022-08-17T18:58:33.724Z,3.38
2022-08-17T22:04:12.346Z,3.47
2022-08-17T22:07:17.231Z,3.30
2022-08-17T22:10:44.618Z,4.15
2022-08-17T22:13:49.697Z,3.03
2022-08-17T22:20:20.412Z,3.13
2022-08-17T22:23:45.490Z,3.20
2022-08-17T22:27:08.427Z,2.87
2022-08-17T22:30:28.391Z,3.00
2022-08-17T22:33:52.099Z,2.83
2022-08-17T22:37:27.415Z,2.80
2022-08-17T22:40:35.561Z,3.65
2022-08-17T22:43:43.084Z,2.85
2022-08-17T22:47:00.131Z,2.78
2022-08-17T22:50:13.492Z,3.05
2022-08-17T22:53:42.252Z,3.00
2022-08-17T22:57:19.938Z,2.67
2022-08-17T23:00:50.757Z,2.85
2022-08-17T23:04:13.119Z,4.07
2022-08-17T23:07:18.440Z,2.70
2022-08-17T23:10:23.278Z,2.78
2022-08-17T23:13:29.375Z,2.90
2022-08-17T23:16:33.930Z,3.45
2022-08-17T23:19:38.644Z,2.63
2022-08-17T23:22:52.372Z,2.78
2022-08-17T23:25:57.842Z,3.33
2022-08-17T23:29:05.288Z,3.00
2022-08-17T23:32:13.108Z,3.05
2022-08-17T23:35:18.257Z,3.08
2022-08-17T23:38:23.408Z,2.92
2022-08-17T23:41:34.075Z,3.40
2022-08-17T23:44:40.761Z,3.22
2022-08-17T23:47:46.256Z,3.00
2022-08-17T23:50:53.764Z,2.90
2022-08-17T23:54:07.941Z,2.88
2022-08-17T23:57:16.019Z,3.20
